sensor_id;sensor_type;location;lat;lon;timestamp;pressure;altitude;pressure_sealevel;temperature;humidity
14273;BME280;7220;49.450;11.052;2023-11-19T00:02:44;98155.69;;;6.05;100.00
14273;BME280;7220;49.450;11.052;2023-11-19T00:06:44;98136.31;;;6.06;100.00
14273;BME280;7220;49.450;11.052;2023-11-19T00:10:45;98136.06;;;6.12;100.00
14273;BME280;7220;49.450;11.052;2023-11-19T00:14:46;98113.38;;;6.08;100.00
14273;BME280;7220;49.450;11.052;2023-11-19T00:18:46;98110.59;;;6.11;100.00
14273;BME280;7220;49.450;11.052;2023-11-19T00:22:47;98132.28;;;6.20;100.00
14273;BME280;7220;49.450;11.052;2023-11-19T00:26:54;98136.66;;;6.21;100.00
14273;BME280;7220;49.450;11.052;2023-11-19T00:30:54;98125.06;;;6.25;100.00
14273;BME280;7220;49.450;11.052;2023-11-19T00:34:55;98122.19;;;6.31;100.00
14273;BME280;7220;49.450;11.052;2023-11-19T00:38:55;98106.59;;;6.25;100.00
14273;BME280;7220;49.450;11.052;2023-11-19T00:42:56;98097.88;;;6.23;100.00
14273;BME280;7220;49.450;11.052;2023-11-19T00:46:57;98099.47;;;6.27;100.00
14273;BME280;7220;49.450;11.052;2023-11-19T00:50:57;98077.56;;;6.25;100.00
14273;BME280;7220;49.450;11.052;2023-11-19T00:54:57;98080.81;;;6.31;100.00
14273;BME280;7220;49.450;11.052;2023-11-19T00:58:58;98075.38;;;6.36;100.00
14273;BME280;7220;49.450;11.052;2023-11-19T01:03:00;98068.69;;;6.27;100.00
14273;BME280;7220;49.450;11.052;2023-11-19T01:07:04;98065.97;;;6.29;100.00
14273;BME280;7220;49.450;11.052;2023-11-19T01:11:05;98060.59;;;6.32;100.00
14273;BME280;7220;49.450;11.052;2023-11-19T01:15:06;98070.03;;;6.38;100.00
14273;BME280;7220;49.450;11.052;2023-11-19T01:19:06;98084.53;;;6.50;100.00
14273;BME280;7220;49.450;11.052;2023-11-19T01:23:07;98084.66;;;6.46;100.00
14273;BME280;7220;49.450;11.052;2023-11-19T01:27:08;98066.13;;;6.48;100.00
14273;BME280;7220;49.450;11.052;2023-11-19T01:31:08;98067.72;;;6.52;100.00
14273;BME280;7220;49.450;11.052;2023-11-19T01:35:08;98065.00;;;6.54;100.00
14273;BME280;7220;49.450;11.052;2023-11-19T01:39:09;98061.56;;;6.52;100.00
14273;BME280;7220;49.450;11.052;2023-11-19T01:43:09;98049.09;;;6.55;100.00
14273;BME280;7220;49.450;11.052;2023-11-19T01:47:14;98034.00;;;6.59;100.00
14273;BME280;7220;49.450;11.052;2023-11-19T01:51:15;98033.88;;;6.62;100.00
14273;BME280;7220;49.450;11.052;2023-11-19T01:55:17;98018.72;;;6.67;100.00
14273;BME280;7220;49.450;11.052;2023-11-19T01:59:17;98000.91;;;6.72;100.00
14273;BME280;7220;49.450;11.052;2023-11-19T02:03:18;97976.44;;;6.67;100.00
14273;BME280;7220;49.450;11.052;2023-11-19T02:07:20;97989.47;;;6.72;100.00
14273;BME280;7220;49.450;11.052;2023-11-19T02:11:20;97979.91;;;6.69;100.00
14273;BME280;7220;49.450;11.052;2023-11-19T02:15:21;97983.19;;;6.74;100.00
14273;BME280;7220;49.450;11.052;2023-11-19T02:19:24;97997.47;;;6.70;100.00
14273;BME280;7220;49.450;11.052;2023-11-19T02:23:28;97990.28;;;6.74;100.00
14273;BME280;7220;49.450;11.052;2023-11-19T02:27:54;97997.56;;;6.67;100.00
14273;BME280;7220;49.450;11.052;2023-11-19T02:31:56;97990.34;;;6.72;100.00
14273;BME280;7220;49.450;11.052;2023-11-19T02:35:56;97995.00;;;6.66;100.00
14273;BME280;7220;49.450;11.052;2023-11-19T02:39:56;97978.97;;;6.70;100.00
14273;BME280;7220;49.450;11.052;2023-11-19T02:44:00;97986.75;;;6.73;100.00
14273;BME280;7220;49.450;11.052;2023-11-19T02:48:01;97982.16;;;6.78;100.00
14273;BME280;7220;49.450;11.052;2023-11-19T02:52:01;97981.25;;;6.79;100.00
14273;BME280;7220;49.450;11.052;2023-11-19T02:56:02;97974.91;;;6.84;100.00
14273;BME280;7220;49.450;11.052;2023-11-19T03:00:17;97973.97;;;6.85;100.00
14273;BME280;7220;49.450;11.052;2023-11-19T03:04:18;97969.28;;;6.91;100.00
14273;BME280;7220;49.450;11.052;2023-11-19T03:08:20;97971.94;;;6.91;100.00
14273;BME280;7220;49.450;11.052;2023-11-19T03:12:21;97971.97;;;6.90;100.00
14273;BME280;7220;49.450;11.052;2023-11-19T03:16:21;97960.50;;;6.91;100.00
14273;BME280;7220;49.450;11.052;2023-11-19T03:20:21;97955.91;;;6.96;100.00
14273;BME280;7220;49.450;11.052;2023-11-19T03:24:23;97947.28;;;6.91;100.00
14273;BME280;7220;49.450;11.052;2023-11-19T03:28:24;97936.59;;;6.94;100.00
14273;BME280;7220;49.450;11.052;2023-11-19T03:32:25;97931.41;;;6.92;100.00
14273;BME280;7220;49.450;11.052;2023-11-19T03:36:25;97938.16;;;6.98;100.00
14273;BME280;7220;49.450;11.052;2023-11-19T03:40:32;97896.63;;;7.02;100.00
14273;BME280;7220;49.450;11.052;2023-11-19T03:44:33;97886.78;;;7.05;100.00
14273;BME280;7220;49.450;11.052;2023-11-19T03:48:33;97868.16;;;7.08;100.00
14273;BME280;7220;49.450;11.052;2023-11-19T03:52:35;97809.09;;;7.09;100.00
14273;BME280;7220;49.450;11.052;2023-11-19T03:56:35;97803.69;;;7.13;100.00
14273;BME280;7220;49.450;11.052;2023-11-19T04:00:36;97809.09;;;7.09;100.00
14273;BME280;7220;49.450;11.052;2023-11-19T04:04:36;97817.63;;;7.16;100.00
14273;BME280;7220;49.450;11.052;2023-11-19T04:08:37;97839.38;;;7.21;100.00
14273;BME280;7220;49.450;11.052;2023-11-19T04:12:37;97841.81;;;7.26;100.00
14273;BME280;7220;49.450;11.052;2023-11-19T04:16:38;97867.38;;;7.25;100.00
14273;BME280;7220;49.450;11.052;2023-11-19T04:20:38;97866.25;;;7.31;100.00
14273;BME280;7220;49.450;11.052;2023-11-19T04:24:38;97864.59;;;7.29;100.00
14273;BME280;7220;49.450;11.052;2023-11-19T04:28:41;97867.97;;;7.32;100.00
14273;BME280;7220;49.450;11.052;2023-11-19T04:32:41;97863.31;;;7.37;100.00
14273;BME280;7220;49.450;11.052;2023-11-19T04:36:41;97867.53;;;7.41;100.00
14273;BME280;7220;49.450;11.052;2023-11-19T04:40:43;97866.63;;;7.42;100.00
14273;BME280;7220;49.450;11.052;2023-11-19T04:44:44;97873.41;;;7.48;100.00
14273;BME280;7220;49.450;11.052;2023-11-19T04:48:44;97866.19;;;7.52;100.00
14273;BME280;7220;49.450;11.052;2023-11-19T04:52:45;97872.13;;;7.57;100.00
14273;BME280;7220;49.450;11.052;2023-11-19T04:56:45;97863.25;;;7.58;100.00
14273;BME280;7220;49.450;11.052;2023-11-19T05:00:47;97871.91;;;7.62;100.00
14273;BME280;7220;49.450;11.052;2023-11-19T05:04:47;97869.97;;;7.65;100.00
14273;BME280;7220;49.450;11.052;2023-11-19T05:08:49;97862.66;;;7.70;100.00
14273;BME280;7220;49.450;11.052;2023-11-19T05:12:49;97848.69;;;7.68;100.00
14273;BME280;7220;49.450;11.052;2023-11-19T05:16:50;97860.69;;;7.76;100.00
14273;BME280;7220;49.450;11.052;2023-11-19T05:20:50;97850.03;;;7.77;100.00
14273;BME280;7220;49.450;11.052;2023-11-19T05:24:50;97848.09;;;7.81;100.00
14273;BME280;7220;49.450;11.052;2023-11-19T05:28:51;97845.22;;;7.85;100.00
14273;BME280;7220;49.450;11.052;2023-11-19T05:32:51;97830.06;;;7.89;100.00
14273;BME280;7220;49.450;11.052;2023-11-19T05:36:51;97836.75;;;7.96;100.00
14273;BME280;7220;49.450;11.052;2023-11-19T05:40:52;97841.03;;;7.99;100.00
14273;BME280;7220;49.450;11.052;2023-11-19T05:44:52;97820.56;;;8.02;100.00
14273;BME280;7220;49.450;11.052;2023-11-19T05:48:52;97818.72;;;8.04;100.00
14273;BME280;7220;49.450;11.052;2023-11-19T05:52:53;97818.47;;;8.09;100.00
14273;BME280;7220;49.450;11.052;2023-11-19T05:56:53;97811.25;;;8.13;100.00
14273;BME280;7220;49.450;11.052;2023-11-19T06:00:57;97805.81;;;8.16;100.00
14273;BME280;7220;49.450;11.052;2023-11-19T06:04:57;97805.59;;;8.20;100.00
14273;BME280;7220;49.450;11.052;2023-11-19T06:08:58;97808.75;;;8.27;100.00
14273;BME280;7220;49.450;11.052;2023-11-19T06:12:58;97822.47;;;8.35;100.00
14273;BME280;7220;49.450;11.052;2023-11-19T06:16:59;97811.53;;;8.42;100.00
14273;BME280;7220;49.450;11.052;2023-11-19T06:21:00;97825.47;;;8.47;100.00
14273;BME280;7220;49.450;11.052;2023-11-19T06:25:00;97818.31;;;8.49;100.00
14273;BME280;7220;49.450;11.052;2023-11-19T06:29:00;97804.09;;;8.50;100.00
14273;BME280;7220;49.450;11.052;2023-11-19T06:33:01;97824.06;;;8.57;100.00
14273;BME280;7220;49.450;11.052;2023-11-19T06:37:01;97818.59;;;8.60;100.00
14273;BME280;7220;49.450;11.052;2023-11-19T06:41:07;97807.84;;;8.63;100.00
14273;BME280;7220;49.450;11.052;2023-11-19T06:45:08;97814.53;;;8.71;100.00
14273;BME280;7220;49.450;11.052;2023-11-19T06:49:09;97806.41;;;8.74;100.00
14273;BME280;7220;49.450;11.052;2023-11-19T06:53:09;97823.72;;;8.81;100.00
14273;BME280;7220;49.450;11.052;2023-11-19T06:57:10;97815.59;;;8.84;100.00
14273;BME280;7220;49.450;11.052;2023-11-19T07:01:11;97816.22;;;8.89;100.00
14273;BME280;7220;49.450;11.052;2023-11-19T07:05:12;97827.44;;;8.94;100.00
14273;BME280;7220;49.450;11.052;2023-11-19T07:09:13;97821.00;;;8.98;100.00
14273;BME280;7220;49.450;11.052;2023-11-19T07:13:14;97813.69;;;9.04;100.00
14273;BME280;7220;49.450;11.052;2023-11-19T07:17:14;97816.84;;;9.10;100.00
14273;BME280;7220;49.450;11.052;2023-11-19T07:21:15;97810.25;;;9.18;100.00
14273;BME280;7220;49.450;11.052;2023-11-19T07:25:16;97809.09;;;9.23;100.00
14273;BME280;7220;49.450;11.052;2023-11-19T07:29:16;97819.28;;;9.31;100.00
14273;BME280;7220;49.450;11.052;2023-11-19T07:33:16;97825.19;;;9.36;100.00
14273;BME280;7220;49.450;11.052;2023-11-19T07:37:17;97832.72;;;9.44;100.00
14273;BME280;7220;49.450;11.052;2023-11-19T07:41:17;97836.75;;;9.51;100.00
14273;BME280;7220;49.450;11.052;2023-11-19T07:45:17;97825.91;;;9.56;100.00
14273;BME280;7220;49.450;11.052;2023-11-19T07:49:18;97828.78;;;9.67;100.00
14273;BME280;7220;49.450;11.052;2023-11-19T07:53:19;97831.03;;;9.75;100.00
14273;BME280;7220;49.450;11.052;2023-11-19T07:57:19;97830.50;;;9.84;100.00
14273;BME280;7220;49.450;11.052;2023-11-19T08:01:20;97829.63;;;10.00;100.00
14273;BME280;7220;49.450;11.052;2023-11-19T08:05:20;97834.31;;;10.10;100.00
14273;BME280;7220;49.450;11.052;2023-11-19T08:09:21;97849.53;;;10.23;100.00
14273;BME280;7220;49.450;11.052;2023-11-19T08:13:21;97839.03;;;10.36;100.00
14273;BME280;7220;49.450;11.052;2023-11-19T08:17:22;97838.19;;;10.51;100.00
14273;BME280;7220;49.450;11.052;2023-11-19T08:21:23;97840.50;;;10.57;100.00
14273;BME280;7220;49.450;11.052;2023-11-19T08:25:23;97844.13;;;10.71;100.00
14273;BME280;7220;49.450;11.052;2023-11-19T08:29:24;97822.56;;;10.76;100.00
14273;BME280;7220;49.450;11.052;2023-11-19T08:33:24;97821.44;;;10.80;100.00
14273;BME280;7220;49.450;11.052;2023-11-19T08:37:25;97824.84;;;10.82;100.00
14273;BME280;7220;49.450;11.052;2023-11-19T08:41:25;97817.75;;;10.97;100.00
14273;BME280;7220;49.450;11.052;2023-11-19T08:45:26;97834.44;;;10.99;100.00
14273;BME280;7220;49.450;11.052;2023-11-19T08:49:26;97824.41;;;11.18;100.00
14273;BME280;7220;49.450;11.052;2023-11-19T08:53:27;97826.28;;;11.16;100.00
14273;BME280;7220;49.450;11.052;2023-11-19T08:57:27;97832.38;;;11.33;100.00
14273;BME280;7220;49.450;11.052;2023-11-19T09:01:27;97820.09;;;11.45;100.00
14273;BME280;7220;49.450;11.052;2023-11-19T09:05:28;97805.66;;;11.49;100.00
14273;BME280;7220;49.450;11.052;2023-11-19T09:09:29;97807.63;;;11.60;100.00
14273;BME280;7220;49.450;11.052;2023-11-19T09:13:30;97801.16;;;11.64;100.00
14273;BME280;7220;49.450;11.052;2023-11-19T09:17:30;97827.53;;;11.81;100.00
14273;BME280;7220;49.450;11.052;2023-11-19T09:21:30;97826.38;;;12.00;100.00
14273;BME280;7220;49.450;11.052;2023-11-19T09:25:31;97833.41;;;12.01;100.00
14273;BME280;7220;49.450;11.052;2023-11-19T09:29:31;97837.72;;;12.17;100.00
14273;BME280;7220;49.450;11.052;2023-11-19T09:33:32;97844.69;;;12.32;100.00
14273;BME280;7220;49.450;11.052;2023-11-19T09:37:34;97864.69;;;12.52;100.00
14273;BME280;7220;49.450;11.052;2023-11-19T09:41:35;97855.31;;;12.59;100.00
14273;BME280;7220;49.450;11.052;2023-11-19T09:45:52;97878.25;;;12.62;100.00
14273;BME280;7220;49.450;11.052;2023-11-19T09:49:54;97862.16;;;12.76;100.00
14273;BME280;7220;49.450;11.052;2023-11-19T09:53:55;97865.13;;;12.72;100.00
14273;BME280;7220;49.450;11.052;2023-11-19T09:57:56;97841.50;;;12.93;100.00
14273;BME280;7220;49.450;11.052;2023-11-19T10:01:59;97856.44;;;13.08;100.00
14273;BME280;7220;49.450;11.052;2023-11-19T10:06:00;97840.22;;;13.12;100.00
14273;BME280;7220;49.450;11.052;2023-11-19T10:10:02;97851.09;;;13.21;100.00
14273;BME280;7220;49.450;11.052;2023-11-19T10:14:04;97829.09;;;13.31;100.00
14273;BME280;7220;49.450;11.052;2023-11-19T10:18:04;97831.66;;;13.32;100.00
14273;BME280;7220;49.450;11.052;2023-11-19T10:22:05;97818.44;;;13.44;100.00
14273;BME280;7220;49.450;11.052;2023-11-19T10:26:06;97821.53;;;13.24;100.00
14273;BME280;7220;49.450;11.052;2023-11-19T10:30:07;97826.97;;;13.49;100.00
14273;BME280;7220;49.450;11.052;2023-11-19T10:34:24;97828.47;;;13.27;100.00
14273;BME280;7220;49.450;11.052;2023-11-19T10:38:25;97831.47;;;13.09;100.00
14273;BME280;7220;49.450;11.052;2023-11-19T10:42:25;97821.44;;;13.00;100.00
14273;BME280;7220;49.450;11.052;2023-11-19T10:46:55;97837.22;;;13.03;100.00
14273;BME280;7220;49.450;11.052;2023-11-19T10:50:56;97823.03;;;13.16;100.00
14273;BME280;7220;49.450;11.052;2023-11-19T10:55:00;97810.56;;;13.16;100.00
14273;BME280;7220;49.450;11.052;2023-11-19T10:59:01;97808.81;;;13.28;100.00
14273;BME280;7220;49.450;11.052;2023-11-19T11:03:10;97805.84;;;13.46;100.00
14273;BME280;7220;49.450;11.052;2023-11-19T11:07:12;97813.50;;;13.50;100.00
14273;BME280;7220;49.450;11.052;2023-11-19T11:11:15;97817.78;;;13.53;100.00
14273;BME280;7220;49.450;11.052;2023-11-19T11:15:18;97825.84;;;13.64;100.00
14273;BME280;7220;49.450;11.052;2023-11-19T11:19:19;97811.75;;;13.62;100.00
14273;BME280;7220;49.450;11.052;2023-11-19T11:28:04;97790.00;;;13.80;100.00
14273;BME280;7220;49.450;11.052;2023-11-19T11:36:47;97787.91;;;13.96;100.00
14273;BME280;7220;49.450;11.052;2023-11-19T11:45:38;97773.00;;;16.11;97.43
14273;BME280;7220;49.450;11.052;2023-11-19T11:49:39;97782.91;;;15.99;95.77
14273;BME280;7220;49.450;11.052;2023-11-19T11:53:41;97794.22;;;15.36;97.88
14273;BME280;7220;49.450;11.052;2023-11-19T11:57:41;97781.09;;;15.33;96.71
14273;BME280;7220;49.450;11.052;2023-11-19T12:01:57;97764.66;;;15.15;97.63
14273;BME280;7220;49.450;11.052;2023-11-19T12:05:58;97778.63;;;14.96;97.95
14273;BME280;7220;49.450;11.052;2023-11-19T12:10:06;97774.84;;;14.76;98.06
14273;BME280;7220;49.450;11.052;2023-11-19T12:14:07;97763.66;;;14.71;98.03
14273;BME280;7220;49.450;11.052;2023-11-19T12:18:08;97761.97;;;14.81;97.53
14273;BME280;7220;49.450;11.052;2023-11-19T12:22:11;97763.78;;;15.03;97.22
14273;BME280;7220;49.450;11.052;2023-11-19T12:26:41;97752.63;;;15.87;94.82
14273;BME280;7220;49.450;11.052;2023-11-19T12:30:42;97733.19;;;16.06;89.64
14273;BME280;7220;49.450;11.052;2023-11-19T12:34:44;97738.00;;;16.45;87.21
14273;BME280;7220;49.450;11.052;2023-11-19T12:38:45;97738.44;;;16.93;83.38
14273;BME280;7220;49.450;11.052;2023-11-19T12:42:47;97726.63;;;17.05;80.61
14273;BME280;7220;49.450;11.052;2023-11-19T12:47:02;97733.00;;;16.83;80.71
14273;BME280;7220;49.450;11.052;2023-11-19T12:51:03;97746.09;;;16.76;80.41
14273;BME280;7220;49.450;11.052;2023-11-19T12:55:04;97751.69;;;16.42;81.16
14273;BME280;7220;49.450;11.052;2023-11-19T12:59:12;97732.16;;;16.19;80.87
14273;BME280;7220;49.450;11.052;2023-11-19T13:03:29;97738.84;;;16.24;79.87
14273;BME280;7220;49.450;11.052;2023-11-19T13:07:30;97740.75;;;16.01;81.41
14273;BME280;7220;49.450;11.052;2023-11-19T13:11:32;97734.72;;;15.76;79.96
14273;BME280;7220;49.450;11.052;2023-11-19T13:15:33;97737.09;;;15.70;78.92
14273;BME280;7220;49.450;11.052;2023-11-19T13:19:34;97746.09;;;15.69;79.03
14273;BME280;7220;49.450;11.052;2023-11-19T13:23:34;97730.69;;;15.82;79.44
14273;BME280;7220;49.450;11.052;2023-11-19T13:27:35;97742.16;;;15.73;79.18
14273;BME280;7220;49.450;11.052;2023-11-19T13:31:36;97732.91;;;15.88;79.79
14273;BME280;7220;49.450;11.052;2023-11-19T13:35:36;97720.19;;;16.02;79.59
14273;BME280;7220;49.450;11.052;2023-11-19T13:39:42;97708.19;;;15.85;81.41
14273;BME280;7220;49.450;11.052;2023-11-19T13:43:42;97697.09;;;15.89;80.78
14273;BME280;7220;49.450;11.052;2023-11-19T13:47:44;97703.91;;;15.82;81.66
14273;BME280;7220;49.450;11.052;2023-11-19T13:51:44;97706.19;;;15.54;83.05
14273;BME280;7220;49.450;11.052;2023-11-19T13:55:45;97696.84;;;15.37;83.91
14273;BME280;7220;49.450;11.052;2023-11-19T13:59:45;97686.28;;;15.36;84.33
14273;BME280;7220;49.450;11.052;2023-11-19T14:03:46;97696.72;;;15.39;85.12
14273;BME280;7220;49.450;11.052;2023-11-19T14:07:46;97691.53;;;15.26;86.75
14273;BME280;7220;49.450;11.052;2023-11-19T14:11:51;97707.97;;;14.98;85.46
14273;BME280;7220;49.450;11.052;2023-11-19T14:15:52;97705.06;;;15.02;84.59
14273;BME280;7220;49.450;11.052;2023-11-19T14:19:52;97708.22;;;15.07;84.50
14273;BME280;7220;49.450;11.052;2023-11-19T14:23:52;97702.63;;;15.10;83.70
14273;BME280;7220;49.450;11.052;2023-11-19T14:27:53;97726.34;;;15.03;83.80
14273;BME280;7220;49.450;11.052;2023-11-19T14:31:53;97730.38;;;14.97;82.67
14273;BME280;7220;49.450;11.052;2023-11-19T14:35:54;97715.25;;;15.08;82.60
14273;BME280;7220;49.450;11.052;2023-11-19T14:39:54;97702.75;;;15.08;82.87
14273;BME280;7220;49.450;11.052;2023-11-19T14:43:54;97706.88;;;14.90;82.50
14273;BME280;7220;49.450;11.052;2023-11-19T14:47:55;97713.47;;;14.86;81.89
14273;BME280;7220;49.450;11.052;2023-11-19T14:51:55;97698.25;;;14.97;81.47
14273;BME280;7220;49.450;11.052;2023-11-19T14:55:55;97710.66;;;14.76;83.02
14273;BME280;7220;49.450;11.052;2023-11-19T14:59:56;97711.00;;;14.71;83.26
14273;BME280;7220;49.450;11.052;2023-11-19T15:03:57;97702.97;;;14.71;83.81
14273;BME280;7220;49.450;11.052;2023-11-19T15:07:57;97708.66;;;14.55;84.42
14273;BME280;7220;49.450;11.052;2023-11-19T15:11:57;97713.97;;;14.32;85.31
14273;BME280;7220;49.450;11.052;2023-11-19T15:15:59;97715.19;;;14.40;84.77
14273;BME280;7220;49.450;11.052;2023-11-19T15:19:59;97714.94;;;14.31;85.06
14273;BME280;7220;49.450;11.052;2023-11-19T15:24:00;97718.09;;;14.36;85.12
14273;BME280;7220;49.450;11.052;2023-11-19T15:28:04;97722.66;;;14.12;86.21
14273;BME280;7220;49.450;11.052;2023-11-19T15:32:05;97737.97;;;14.21;86.25
14273;BME280;7220;49.450;11.052;2023-11-19T15:36:07;97733.25;;;14.25;86.66
14273;BME280;7220;49.450;11.052;2023-11-19T15:40:08;97727.78;;;14.15;87.19
14273;BME280;7220;49.450;11.052;2023-11-19T15:44:09;97727.22;;;13.98;87.68
14273;BME280;7220;49.450;11.052;2023-11-19T15:48:09;97719.69;;;13.92;87.83
14273;BME280;7220;49.450;11.052;2023-11-19T15:52:14;97743.94;;;13.89;88.12
14273;BME280;7220;49.450;11.052;2023-11-19T15:56:14;97754.00;;;13.85;88.85
14273;BME280;7220;49.450;11.052;2023-11-19T16:00:15;97747.75;;;13.73;88.63
14273;BME280;7220;49.450;11.052;2023-11-19T16:04:17;97750.09;;;13.54;88.86
14273;BME280;7220;49.450;11.052;2023-11-19T16:08:17;97735.13;;;13.76;88.77
14273;BME280;7220;49.450;11.052;2023-11-19T16:12:17;97749.13;;;13.79;88.44
14273;BME280;7220;49.450;11.052;2023-11-19T16:16:18;97752.47;;;13.70;88.74
14273;BME280;7220;49.450;11.052;2023-11-19T16:20:18;97759.97;;;13.65;88.47
14273;BME280;7220;49.450;11.052;2023-11-19T16:24:18;97779.78;;;13.73;88.70
14273;BME280;7220;49.450;11.052;2023-11-19T16:28:19;97765.41;;;13.63;89.47
14273;BME280;7220;49.450;11.052;2023-11-19T16:32:19;97775.78;;;13.55;89.31
14273;BME280;7220;49.450;11.052;2023-11-19T16:36:20;97765.19;;;13.66;89.54
14273;BME280;7220;49.450;11.052;2023-11-19T16:40:20;97758.75;;;13.45;90.59
14273;BME280;7220;49.450;11.052;2023-11-19T16:44:20;97750.75;;;13.45;91.17
14273;BME280;7220;49.450;11.052;2023-11-19T16:48:21;97760.88;;;13.39;90.97
14273;BME280;7220;49.450;11.052;2023-11-19T16:52:21;97753.09;;;13.49;90.79
14273;BME280;7220;49.450;11.052;2023-11-19T16:56:22;97755.84;;;13.48;91.01
14273;BME280;7220;49.450;11.052;2023-11-19T17:00:22;97762.69;;;13.52;91.58
14273;BME280;7220;49.450;11.052;2023-11-19T17:04:22;97771.56;;;13.39;92.30
14273;BME280;7220;49.450;11.052;2023-11-19T17:08:23;97783.19;;;13.38;92.23
14273;BME280;7220;49.450;11.052;2023-11-19T17:12:25;97779.88;;;13.35;92.23
14273;BME280;7220;49.450;11.052;2023-11-19T17:16:25;97775.94;;;13.40;91.84
14273;BME280;7220;49.450;11.052;2023-11-19T17:20:25;97765.69;;;13.47;90.81
14273;BME280;7220;49.450;11.052;2023-11-19T17:24:26;97784.25;;;13.36;91.15
14273;BME280;7220;49.450;11.052;2023-11-19T17:28:26;97786.41;;;13.31;91.39
14273;BME280;7220;49.450;11.052;2023-11-19T17:32:26;97787.03;;;13.34;90.99
14273;BME280;7220;49.450;11.052;2023-11-19T17:36:27;97801.53;;;13.30;90.97
14273;BME280;7220;49.450;11.052;2023-11-19T17:40:28;97799.00;;;13.29;90.55
14273;BME280;7220;49.450;11.052;2023-11-19T17:44:28;97806.03;;;13.30;89.84
14273;BME280;7220;49.450;11.052;2023-11-19T17:48:28;97802.53;;;13.16;89.30
14273;BME280;7220;49.450;11.052;2023-11-19T17:52:29;97810.94;;;13.23;88.80
14273;BME280;7220;49.450;11.052;2023-11-19T17:56:30;97816.09;;;13.26;88.46
14273;BME280;7220;49.450;11.052;2023-11-19T18:00:30;97815.47;;;13.09;89.14
14273;BME280;7220;49.450;11.052;2023-11-19T18:04:30;97812.25;;;13.04;88.25
14273;BME280;7220;49.450;11.052;2023-11-19T18:08:31;97808.72;;;13.04;88.40
14273;BME280;7220;49.450;11.052;2023-11-19T18:12:32;97809.28;;;12.96;88.45
14273;BME280;7220;49.450;11.052;2023-11-19T18:16:33;97819.06;;;12.96;88.82
14273;BME280;7220;49.450;11.052;2023-11-19T18:20:33;97816.22;;;12.86;88.15
14273;BME280;7220;49.450;11.052;2023-11-19T18:24:34;97813.41;;;12.87;87.70
14273;BME280;7220;49.450;11.052;2023-11-19T18:28:36;97818.88;;;12.86;87.72
14273;BME280;7220;49.450;11.052;2023-11-19T18:32:36;97826.56;;;12.90;87.68
14273;BME280;7220;49.450;11.052;2023-11-19T18:36:37;97817.69;;;12.90;86.85
14273;BME280;7220;49.450;11.052;2023-11-19T18:40:37;97829.34;;;12.89;86.86
14273;BME280;7220;49.450;11.052;2023-11-19T18:44:38;97842.66;;;12.76;86.42
14273;BME280;7220;49.450;11.052;2023-11-19T18:48:38;97848.22;;;12.86;86.54
14273;BME280;7220;49.450;11.052;2023-11-19T18:52:39;97846.50;;;12.85;86.38
14273;BME280;7220;49.450;11.052;2023-11-19T18:56:39;97844.69;;;12.85;86.50
14273;BME280;7220;49.450;11.052;2023-11-19T19:00:40;97856.72;;;12.91;86.57
14273;BME280;7220;49.450;11.052;2023-11-19T19:04:41;97867.00;;;12.84;86.28
14273;BME280;7220;49.450;11.052;2023-11-19T19:08:41;97864.09;;;12.87;86.65
14273;BME280;7220;49.450;11.052;2023-11-19T19:12:43;97879.78;;;12.92;86.63
14273;BME280;7220;49.450;11.052;2023-11-19T19:16:43;97863.25;;;12.87;87.14
14273;BME280;7220;49.450;11.052;2023-11-19T19:20:44;97866.56;;;12.90;86.98
14273;BME280;7220;49.450;11.052;2023-11-19T19:24:45;97876.25;;;12.78;87.93
14273;BME280;7220;49.450;11.052;2023-11-19T19:28:45;97870.91;;;12.78;88.16
14273;BME280;7220;49.450;11.052;2023-11-19T19:32:45;97864.31;;;12.84;87.79
14273;BME280;7220;49.450;11.052;2023-11-19T19:36:45;97883.72;;;12.73;88.93
14273;BME280;7220;49.450;11.052;2023-11-19T19:40:46;97870.44;;;12.59;89.88
14273;BME280;7220;49.450;11.052;2023-11-19T19:44:46;97876.00;;;12.56;87.96
14273;BME280;7220;49.450;11.052;2023-11-19T19:48:46;97888.38;;;12.57;86.00
14273;BME280;7220;49.450;11.052;2023-11-19T19:52:47;97871.19;;;12.61;82.35
14273;BME280;7220;49.450;11.052;2023-11-19T19:56:47;97879.31;;;12.59;82.33
14273;BME280;7220;49.450;11.052;2023-11-19T20:00:47;97883.38;;;12.65;81.67
14273;BME280;7220;49.450;11.052;2023-11-19T20:04:48;97865.69;;;12.64;81.75
14273;BME280;7220;49.450;11.052;2023-11-19T20:08:48;97871.63;;;12.55;81.95
14273;BME280;7220;49.450;11.052;2023-11-19T20:12:49;97876.31;;;12.51;81.67
14273;BME280;7220;49.450;11.052;2023-11-19T20:16:49;97901.53;;;12.45;81.91
14273;BME280;7220;49.450;11.052;2023-11-19T20:20:50;97894.09;;;12.51;81.47
14273;BME280;7220;49.450;11.052;2023-11-19T20:24:50;97888.34;;;12.44;82.30
14273;BME280;7220;49.450;11.052;2023-11-19T20:28:51;97886.69;;;12.28;83.34
14273;BME280;7220;49.450;11.052;2023-11-19T20:32:51;97886.06;;;12.10;83.81
14273;BME280;7220;49.450;11.052;2023-11-19T20:36:52;97890.00;;;12.05;84.29
14273;BME280;7220;49.450;11.052;2023-11-19T20:40:54;97897.03;;;12.06;84.01
14273;BME280;7220;49.450;11.052;2023-11-19T20:44:54;97902.16;;;12.09;84.42
14273;BME280;7220;49.450;11.052;2023-11-19T20:48:54;97907.59;;;12.07;85.13
14273;BME280;7220;49.450;11.052;2023-11-19T20:52:55;97914.25;;;12.00;84.67
14273;BME280;7220;49.450;11.052;2023-11-19T20:56:57;97900.53;;;11.92;84.77
14273;BME280;7220;49.450;11.052;2023-11-19T21:00:57;97901.25;;;11.81;85.72
14273;BME280;7220;49.450;11.052;2023-11-19T21:04:57;97887.84;;;11.68;86.25
14273;BME280;7220;49.450;11.052;2023-11-19T21:08:58;97879.66;;;11.71;85.85
14273;BME280;7220;49.450;11.052;2023-11-19T21:12:58;97887.63;;;11.71;85.99
14273;BME280;7220;49.450;11.052;2023-11-19T21:17:00;97881.00;;;11.64;86.74
14273;BME280;7220;49.450;11.052;2023-11-19T21:21:00;97882.34;;;11.57;87.15
14273;BME280;7220;49.450;11.052;2023-11-19T21:25:01;97896.22;;;11.47;87.76
14273;BME280;7220;49.450;11.052;2023-11-19T21:29:01;97891.19;;;11.28;89.31